Northway, Alaska
Current Conditions -  °F | °C
As of 8:53 AM on Tuesday 21 Oct 2014 (Local Time) from PAOR Reporting Station
Few Clouds Few Clouds  
Wind Chill: 22°   Ceiling: Unl
Heat Index: 22°   Visibility: 10mi
Dew Point: 19°   Wind: 3mph
Humidity: 89%   Direction: 120°ESE
Pressure: 29.34"   Gusts: NA
Location:  62.95°N, 141.93°W
Report Text: PAOR 211653Z 12003KT 10SM FEW018 FEW040 FEW075 M06/M07 A2934 RMK AO2 SLP967 I1000 T10561072
Loading
Personal Weather Stations






























Interactive Weather Map
Tropical Storm Tracking
New forecast layout! Learn more

10-Day Weather Forecast

Advertisements
Track Severe Weather on mobile